createdAt,value
2023-03-08T00:02:20.541Z,24.22
2023-03-08T00:08:07.879Z,24.33
2023-03-08T00:13:15.800Z,24.39
2023-03-08T00:18:26.994Z,24.46
2023-03-08T00:23:51.189Z,24.49
2023-03-08T00:28:55.408Z,24.58
2023-03-08T00:34:07.512Z,24.58
2023-03-08T00:39:14.832Z,24.64
2023-03-08T00:44:22.128Z,24.69
2023-03-08T00:49:29.399Z,24.70
2023-03-08T00:54:36.692Z,24.77
2023-03-08T00:59:43.838Z,24.79
2023-03-08T01:04:51.026Z,24.81
2023-03-08T01:09:58.207Z,24.85
2023-03-08T01:15:06.018Z,24.87
2023-03-08T01:20:13.238Z,24.94
2023-03-08T01:25:20.540Z,24.95
2023-03-08T01:30:27.696Z,24.94
2023-03-08T01:35:34.937Z,24.99
2023-03-08T01:40:42.127Z,25.00
2023-03-08T01:45:49.329Z,25.03
2023-03-08T01:50:56.631Z,25.07
2023-03-08T01:56:03.943Z,25.01
2023-03-08T02:01:11.432Z,25.08
2023-03-08T02:06:18.883Z,25.24
2023-03-08T02:11:26.225Z,25.15
2023-03-08T02:16:33.582Z,25.37
2023-03-08T02:21:40.826Z,25.36
2023-03-08T02:26:48.407Z,25.38
2023-03-08T02:32:00.259Z,25.03
2023-03-08T02:37:10.851Z,24.90
2023-03-08T02:42:18.183Z,24.96
2023-03-08T02:47:29.593Z,25.44
2023-03-08T02:53:39.955Z,25.42
2023-03-08T02:58:07.733Z,25.42
2023-03-08T03:03:28.761Z,25.43
2023-03-08T03:08:32.042Z,25.40
2023-03-08T03:13:42.509Z,25.37
2023-03-08T03:18:56.432Z,25.41
2023-03-08T03:24:12.695Z,25.38
2023-03-08T03:29:20.321Z,25.33
2023-03-08T03:34:34.339Z,25.36
2023-03-08T03:39:42.072Z,25.35
2023-03-08T03:44:51.533Z,25.35
2023-03-08T03:50:03.031Z,25.30
2023-03-08T03:55:49.452Z,25.31
2023-03-08T04:01:00.254Z,25.30
2023-03-08T04:06:14.965Z,25.29
2023-03-08T04:11:22.417Z,25.29
2023-03-08T04:16:36.201Z,25.24
2023-03-08T04:22:18.595Z,25.19
2023-03-08T04:28:01.732Z,25.19
2023-03-08T04:33:18.230Z,25.14
2023-03-08T04:38:25.851Z,25.17
2023-03-08T04:43:36.832Z,25.14
2023-03-08T04:48:59.379Z,25.10
2023-03-08T04:54:15.543Z,25.11
2023-03-08T04:59:22.974Z,25.16
2023-03-08T05:04:30.868Z,25.21
2023-03-08T05:09:38.554Z,25.21
2023-03-08T05:14:47.234Z,25.23
2023-03-08T05:19:55.222Z,25.34
2023-03-08T05:25:08.306Z,25.32
2023-03-08T05:30:15.738Z,25.32
2023-03-08T05:35:23.316Z,25.31
2023-03-08T05:40:35.377Z,25.31
2023-03-08T05:46:18.450Z,25.44
2023-03-08T05:51:27.162Z,25.52
2023-03-08T05:57:13.049Z,25.49
2023-03-08T06:01:46.634Z,25.51
2023-03-08T06:06:54.197Z,25.57
2023-03-08T06:12:17.455Z,25.52
2023-03-08T06:17:19.021Z,25.64
2023-03-08T06:22:34.988Z,25.61
2023-03-08T06:28:17.644Z,25.66
2023-03-08T06:33:36.234Z,25.73
2023-03-08T06:38:43.082Z,25.74
2023-03-08T06:43:50.647Z,25.72
2023-03-08T06:48:58.134Z,25.75
2023-03-08T06:54:05.494Z,25.72
2023-03-08T06:59:12.954Z,25.77
2023-03-08T07:04:20.489Z,25.65
2023-03-08T07:09:28.036Z,25.51
2023-03-08T07:14:35.293Z,25.46
2023-03-08T07:19:42.880Z,25.46
2023-03-08T07:25:09.393Z,25.47
2023-03-08T07:33:42.062Z,25.47
2023-03-08T07:35:41.891Z,25.52
2023-03-08T07:40:54.133Z,25.46
2023-03-08T07:46:20.332Z,25.51
2023-03-08T07:51:33.107Z,25.51
2023-03-08T07:56:40.772Z,25.52
2023-03-08T08:01:48.328Z,25.50
2023-03-08T08:06:55.664Z,25.51
2023-03-08T08:12:07.119Z,25.63
2023-03-08T08:17:14.645Z,25.62
2023-03-08T08:22:21.983Z,25.65
2023-03-08T08:27:29.445Z,25.80
2023-03-08T08:32:37.045Z,25.79
2023-03-08T08:37:44.376Z,25.75
2023-03-08T08:43:00.555Z,25.80
2023-03-08T08:48:04.098Z,25.82
2023-03-08T08:53:17.348Z,25.78
2023-03-08T08:58:31.066Z,25.68
2023-03-08T09:03:34.685Z,25.72
2023-03-08T09:08:44.962Z,26.06
2023-03-08T09:13:52.122Z,26.51
2023-03-08T09:18:59.593Z,26.49
2023-03-08T09:24:13.286Z,26.29
2023-03-08T09:29:20.945Z,26.14
2023-03-08T09:34:28.567Z,26.05
2023-03-08T09:39:36.195Z,26.08
2023-03-08T09:44:59.589Z,26.06
2023-03-08T09:50:06.969Z,26.00
2023-03-08T09:55:14.504Z,25.96
2023-03-08T10:00:29.077Z,25.94
2023-03-08T10:05:41.153Z,25.88
2023-03-08T10:10:48.570Z,25.86
2023-03-08T10:15:56.248Z,25.83
2023-03-08T10:21:03.654Z,25.78
2023-03-08T10:26:13.742Z,25.84
2023-03-08T10:31:21.330Z,25.85
2023-03-08T10:36:28.566Z,25.82
2023-03-08T10:41:37.899Z,25.83
2023-03-08T10:46:45.507Z,25.81
2023-03-08T10:51:52.845Z,25.98
2023-03-08T10:57:00.999Z,25.89
2023-03-08T11:02:08.321Z,25.90
2023-03-08T11:07:15.637Z,25.88
2023-03-08T11:12:23.097Z,25.89
2023-03-08T11:17:30.578Z,25.93
2023-03-08T11:22:38.098Z,25.94
2023-03-08T11:27:45.430Z,25.98
2023-03-08T11:32:53.286Z,26.08
2023-03-08T11:38:00.333Z,26.09
2023-03-08T11:43:10.826Z,26.03
2023-03-08T11:48:18.220Z,26.03
2023-03-08T11:53:25.616Z,26.01
2023-03-08T11:58:32.888Z,26.05
2023-03-08T12:03:40.660Z,26.11
2023-03-08T12:08:47.883Z,26.16
2023-03-08T12:13:55.142Z,26.06
2023-03-08T12:19:02.785Z,26.04
2023-03-08T12:24:10.233Z,25.95
2023-03-08T12:29:23.601Z,25.92
2023-03-08T12:34:30.319Z,25.90
2023-03-08T12:39:37.885Z,25.86
2023-03-08T12:44:45.191Z,25.87
2023-03-08T12:49:52.763Z,25.90
2023-03-08T12:54:59.881Z,25.97
2023-03-08T13:00:11.008Z,25.91
2023-03-08T13:05:21.906Z,25.89
2023-03-08T13:10:29.281Z,25.85
2023-03-08T13:15:36.679Z,25.98
2023-03-08T13:20:44.012Z,26.08
2023-03-08T13:25:51.804Z,25.94
2023-03-08T13:30:58.987Z,25.98
2023-03-08T13:36:06.422Z,26.01
2023-03-08T13:41:13.632Z,26.10
2023-03-08T13:46:21.110Z,26.20
2023-03-08T13:51:28.480Z,26.25
2023-03-08T13:56:36.032Z,26.27
2023-03-08T14:01:43.325Z,26.24
2023-03-08T14:06:50.705Z,26.32
2023-03-08T14:11:57.954Z,26.44
2023-03-08T14:17:05.296Z,26.54
2023-03-08T14:22:12.784Z,26.65
2023-03-08T14:27:19.946Z,26.68
2023-03-08T14:32:27.259Z,26.79
2023-03-08T14:37:37.727Z,26.77
2023-03-08T14:42:45.567Z,26.65
2023-03-08T14:47:52.823Z,26.68
2023-03-08T14:53:00.297Z,26.70
2023-03-08T14:58:07.840Z,26.60
2023-03-08T15:03:30.214Z,26.71
2023-03-08T15:08:37.569Z,26.84
2023-03-08T15:13:45.427Z,26.85
2023-03-08T15:18:56.386Z,26.83
2023-03-08T15:24:03.887Z,26.91
2023-03-08T15:29:11.117Z,26.97
2023-03-08T15:34:18.486Z,26.96
2023-03-08T15:39:25.889Z,26.96
2023-03-08T15:44:33.292Z,26.97
2023-03-08T15:49:40.743Z,26.94
2023-03-08T15:54:48.360Z,27.05
2023-03-08T15:59:55.590Z,27.03
2023-03-08T16:05:02.944Z,27.04
2023-03-08T16:10:11.068Z,27.00
2023-03-08T16:15:18.044Z,26.99
2023-03-08T16:20:25.463Z,26.92
2023-03-08T16:25:32.763Z,26.94
2023-03-08T16:30:40.201Z,26.87
2023-03-08T16:35:47.623Z,26.85
2023-03-08T16:41:06.211Z,26.87
2023-03-08T16:46:02.515Z,26.94
2023-03-08T16:51:09.922Z,26.95
2023-03-08T16:56:17.372Z,26.99
2023-03-08T17:01:24.782Z,26.97
2023-03-08T17:06:32.319Z,27.00
2023-03-08T17:11:39.676Z,27.03
2023-03-08T17:16:46.969Z,27.18
2023-03-08T17:21:54.270Z,27.83
2023-03-08T17:27:01.456Z,27.77
2023-03-08T17:32:08.693Z,27.42
2023-03-08T17:37:15.900Z,27.24
2023-03-08T17:42:23.358Z,27.14
2023-03-08T17:47:30.950Z,26.94
2023-03-08T17:52:38.257Z,26.78
2023-03-08T17:57:45.486Z,26.68
2023-03-08T18:02:53.035Z,26.46
2023-03-08T18:08:00.393Z,26.52
2023-03-08T18:13:07.646Z,26.37
2023-03-08T18:18:15.532Z,27.15
2023-03-08T18:23:22.706Z,27.74
2023-03-08T18:28:30.094Z,28.01
2023-03-08T18:33:37.647Z,27.86
2023-03-08T18:38:45.241Z,27.74
2023-03-08T18:43:52.779Z,27.55
2023-03-08T18:49:00.166Z,27.36
2023-03-08T18:54:07.395Z,27.46
2023-03-08T18:59:14.910Z,27.46
2023-03-08T19:04:22.619Z,27.34
2023-03-08T19:09:30.203Z,27.17
2023-03-08T19:14:37.664Z,27.25
2023-03-08T19:19:45.024Z,27.34
2023-03-08T19:24:52.746Z,26.89
2023-03-08T19:30:00.299Z,26.82
2023-03-08T19:35:07.865Z,26.65
2023-03-08T19:40:15.607Z,27.61
2023-03-08T19:45:23.239Z,27.10
2023-03-08T19:50:30.822Z,27.71
2023-03-08T19:55:38.541Z,27.74
2023-03-08T20:00:46.012Z,27.55
2023-03-08T20:05:53.615Z,27.05
2023-03-08T20:11:01.407Z,26.96
2023-03-08T20:16:09.330Z,27.34
2023-03-08T20:21:17.159Z,27.18
2023-03-08T20:26:24.942Z,27.26
2023-03-08T20:31:32.832Z,27.27
2023-03-08T20:36:40.488Z,27.34
2023-03-08T20:41:47.987Z,27.18
2023-03-08T20:46:55.534Z,27.08
2023-03-08T20:52:03.731Z,27.10
2023-03-08T20:57:11.138Z,27.17
2023-03-08T21:02:18.528Z,27.25
2023-03-08T21:07:25.758Z,27.19
2023-03-08T21:12:33.173Z,26.92
2023-03-08T21:17:40.537Z,27.27
2023-03-08T21:22:47.769Z,27.28
2023-03-08T21:27:55.386Z,27.24
2023-03-08T21:33:02.906Z,27.10
2023-03-08T21:38:10.312Z,27.12
2023-03-08T21:43:18.022Z,27.11
2023-03-08T21:48:25.314Z,27.04
2023-03-08T21:53:32.542Z,27.07
2023-03-08T21:58:39.765Z,26.93
2023-03-08T22:03:46.996Z,27.08
2023-03-08T22:08:54.242Z,27.12
2023-03-08T22:14:01.442Z,27.18
2023-03-08T22:19:08.637Z,27.16
2023-03-08T22:24:15.807Z,26.99
2023-03-08T22:29:22.999Z,26.79
2023-03-08T22:34:30.272Z,26.64
2023-03-08T22:39:37.350Z,26.63
2023-03-08T22:44:44.578Z,26.56
2023-03-08T22:49:51.759Z,27.09
2023-03-08T22:54:58.905Z,27.45
2023-03-08T23:00:10.778Z,26.70
2023-03-08T23:05:15.745Z,26.41
2023-03-08T23:10:23.188Z,26.29
2023-03-08T23:15:31.456Z,26.18
2023-03-08T23:20:39.071Z,26.05
2023-03-08T23:25:49.694Z,25.96
2023-03-08T23:30:56.581Z,25.86
2023-03-08T23:36:04.671Z,25.83
2023-03-08T23:41:11.962Z,25.78
2023-03-08T23:46:19.414Z,25.78
2023-03-08T23:51:26.772Z,25.67
2023-03-08T23:56:34.209Z,25.60
